Time;durP1;ratioP1;P1;durP2;ratioP2;P2;SDS_P1;SDS_P2;PMS_P1;PMS_P2;Temp;Humidity;BMP_temperature;BMP_pressure;BME280_temperature;BME280_humidity;BME280_pressure;Samples;Min_cycle;Max_cycle;Signal;HPM_P1;HPM_P2
2023/06/01 00:00:34;;;;;;;15.55;10.90;;;;;;;12.51;78.82;102219.03;4885618;29;20482;-73
2023/06/01 00:03:00;;;;;;;15.43;11.20;;;;;;;12.45;79.57;102219.03;4857835;29;20464;-74
2023/06/01 00:05:25;;;;;;;19.45;11.30;;;;;;;12.43;79.41;102221.66;4870816;29;20040;-74
2023/06/01 00:07:51;;;;;;;18.40;10.98;;;;;;;12.37;79.18;102226.91;4864367;29;20036;-74
2023/06/01 00:10:19;;;;;;;16.27;11.15;;;;;;;12.30;79.68;102225.13;4864501;29;20067;-75
2023/06/01 00:12:45;;;;;;;17.75;11.25;;;;;;;12.26;79.92;102223.34;4871239;29;20056;-74
2023/06/01 00:15:10;;;;;;;18.98;11.23;;;;;;;12.24;79.69;102232.97;4874474;29;20589;-74
2023/06/01 00:17:36;;;;;;;18.02;12.02;;;;;;;12.13;80.17;102231.19;4856935;29;20052;-71
2023/06/01 00:20:06;;;;;;;18.58;11.85;;;;;;;12.11;80.54;102229.41;4868505;29;20100;-71
2023/06/01 00:22:34;;;;;;;18.73;12.40;;;;;;;12.07;80.07;102228.53;4883918;29;20464;-71
2023/06/01 00:25:00;;;;;;;19.10;12.00;;;;;;;12.02;80.85;102230.25;4876100;29;20035;-72
2023/06/01 00:27:25;;;;;;;18.40;12.35;;;;;;;12.02;80.51;102230.25;4868246;29;20361;-71
2023/06/01 00:29:52;;;;;;;17.10;11.70;;;;;;;11.92;81.04;102223.19;4870437;29;20073;-71
2023/06/01 00:32:17;;;;;;;19.83;11.77;;;;;;;11.90;80.97;102225.78;4869437;29;20024;-71
2023/06/01 00:34:43;;;;;;;20.77;12.48;;;;;;;11.83;81.49;102220.53;4857155;29;20556;-74
2023/06/01 00:37:08;;;;;;;17.80;13.15;;;;;;;11.79;81.40;102217.88;4858813;29;20105;-74
2023/06/01 00:39:33;;;;;;;21.45;13.13;;;;;;;11.74;81.65;102224.84;4885271;29;20417;-74
2023/06/01 00:41:59;;;;;;;18.35;12.20;;;;;;;11.64;81.51;102220.41;4846903;29;20036;-74
2023/06/01 00:44:24;;;;;;;17.17;12.25;;;;;;;11.66;81.52;102226.53;4870152;29;20445;-74
2023/06/01 00:46:51;;;;;;;16.85;12.48;;;;;;;11.54;81.95;102222.09;4872236;29;20051;-74
2023/06/01 00:49:18;;;;;;;17.45;12.95;;;;;;;11.47;82.62;102224.69;4886244;29;20029;-74
2023/06/01 00:51:45;;;;;;;18.92;12.88;;;;;;;11.37;82.40;102219.34;4874920;29;20036;-73
2023/06/01 00:54:12;;;;;;;15.80;11.60;;;;;;;11.27;83.02;102220.16;4865035;29;20043;-74
2023/06/01 00:56:38;;;;;;;16.95;12.88;;;;;;;11.27;82.11;102222.78;4869679;29;20064;-75
2023/06/01 00:59:03;;;;;;;14.75;11.95;;;;;;;11.16;82.21;102216.56;4868752;29;20064;-74
2023/06/01 01:01:29;;;;;;;14.88;11.98;;;;;;;11.14;82.47;102221.81;4838604;29;20470;-74
2023/06/01 01:03:57;;;;;;;17.20;10.95;;;;;;;11.08;82.09;102219.16;4840664;29;20158;-74
2023/06/01 01:06:36;;;;;;;15.70;11.32;;;;;;;11.00;82.55;102229.56;4883717;29;20036;-74
2023/06/01 01:09:07;;;;;;;17.35;11.63;;;;;;;10.90;82.36;102225.09;4885758;29;20032;-74
2023/06/01 01:11:32;;;;;;;;;;;;;;;11.04;81.09;102241.84;4886587;29;20084;-74
2023/06/01 01:14:20;;;;;;;16.20;11.02;;;;;;;10.89;82.45;102234.72;4869180;29;19951;-74
2023/06/01 01:17:02;;;;;;;14.75;11.45;;;;;;;10.86;82.34;102236.41;4875792;29;20032;-74
2023/06/01 01:19:42;;;;;;;22.60;11.75;;;;;;;10.80;82.78;102241.63;4870130;29;20032;-74
2023/06/01 01:22:38;;;;;;;;;;;;;;;10.91;81.31;102237.34;4881008;29;20473;-74
2023/06/01 01:25:31;;;;;;;15.65;11.55;;;;;;;10.72;83.07;102239.78;4837770;29;19927;-74
2023/06/01 01:28:13;;;;;;;17.65;11.20;;;;;;;10.74;82.33;102234.56;4872560;29;20040;-74
2023/06/01 01:30:42;;;;;;;15.30;11.23;;;;;;;10.69;82.56;102234.53;4870978;29;20032;-74
2023/06/01 01:33:09;;;;;;;18.55;12.00;;;;;;;10.56;82.89;102233.53;4883669;29;20032;-74
2023/06/01 01:35:36;;;;;;;16.75;11.80;;;;;;;10.51;83.44;102235.19;4882539;29;20674;-74
2023/06/01 01:38:02;;;;;;;16.88;11.98;;;;;;;10.46;83.56;102236.91;4864250;29;20108;-74
2023/06/01 01:40:27;;;;;;;20.30;12.35;;;;;;;10.43;83.67;102242.13;4873735;29;20413;-74
2023/06/01 01:42:54;;;;;;;21.08;14.20;;;;;;;10.34;84.71;102237.66;4870307;29;20527;-74
2023/06/01 01:45:20;;;;;;;20.23;13.43;;;;;;;10.30;85.26;102238.44;4858586;29;20357;-74
2023/06/01 01:47:49;;;;;;;18.58;13.38;;;;;;;10.31;84.82;102240.19;4864326;29;20051;-74
2023/06/01 01:50:18;;;;;;;20.50;14.35;;;;;;;10.28;84.83;102237.53;4884658;29;20037;-74
2023/06/01 01:52:46;;;;;;;18.77;13.45;;;;;;;10.19;84.97;102242.69;4872621;29;20133;-74
2023/06/01 01:55:12;;;;;;;18.45;13.00;;;;;;;10.15;84.72;102241.75;4889204;29;20028;-74
2023/06/01 01:57:40;;;;;;;21.38;13.38;;;;;;;10.14;85.04;102240.00;4875662;29;20095;-74
2023/06/01 02:00:07;;;;;;;19.60;14.48;;;;;;;10.02;85.56;102243.31;4870939;29;20036;-74
2023/06/01 02:02:33;;;;;;;24.55;15.95;;;;;;;10.05;85.70;102247.72;4867068;29;20497;-74
2023/06/01 02:04:58;;;;;;;21.17;15.95;;;;;;;9.97;86.08;102237.16;4872154;29;20036;-74
2023/06/01 02:07:23;;;;;;;23.83;17.50;;;;;;;9.85;86.94;102234.38;4884058;29;20124;-74
2023/06/01 02:09:49;;;;;;;23.20;17.85;;;;;;;9.81;87.64;102235.19;4877280;29;20060;-75
2023/06/01 02:12:15;;;;;;;23.42;17.98;;;;;;;9.81;87.45;102236.09;4859995;29;20075;-74
2023/06/01 02:14:40;;;;;;;23.13;17.83;;;;;;;9.68;87.74;102239.38;4861422;29;20040;-71
2023/06/01 02:17:07;;;;;;;26.52;17.98;;;;;;;9.64;87.66;102241.06;4857711;29;20104;-72
2023/06/01 02:19:32;;;;;;;28.25;18.35;;;;;;;9.62;87.69;102239.28;4872627;29;20084;-71
2023/06/01 02:21:58;;;;;;;26.52;18.20;;;;;;;9.60;88.13;102236.66;4861174;29;20044;-72
2023/06/01 02:24:23;;;;;;;25.08;19.10;;;;;;;9.59;88.50;102237.50;4872628;29;20104;-72
2023/06/01 02:26:52;;;;;;;29.60;19.27;;;;;;;9.58;88.71;102240.97;4877377;29;20056;-71
2023/06/01 02:29:19;;;;;;;25.70;18.65;;;;;;;9.55;89.23;102243.53;4850626;29;20088;-71
2023/06/01 02:31:45;;;;;;;26.45;19.40;;;;;;;9.57;89.18;102236.59;4874407;29;20043;-71
2023/06/01 02:34:10;;;;;;;25.00;19.15;;;;;;;9.54;89.64;102236.56;4861524;29;20037;-71
2023/06/01 02:36:36;;;;;;;28.00;18.52;;;;;;;9.54;89.46;102233.94;4872971;29;20037;-71
2023/06/01 02:39:02;;;;;;;25.15;19.15;;;;;;;9.58;89.07;102238.34;4872267;29;20473;-71
2023/06/01 02:41:27;;;;;;;22.33;18.27;;;;;;;9.59;89.00;102229.66;4870488;29;20034;-71
2023/06/01 02:43:53;;;;;;;24.67;19.35;;;;;;;9.60;88.99;102218.31;4873212;29;20044;-70
2023/06/01 02:46:18;;;;;;;21.77;16.92;;;;;;;9.58;89.19;102235.72;4850917;29;20029;-71
2023/06/01 02:48:45;;;;;;;30.88;17.40;;;;;;;9.62;88.72;102232.31;4857304;29;20036;-72
2023/06/01 02:51:11;;;;;;;21.25;16.77;;;;;;;9.58;88.72;102230.50;4882165;29;20129;-71
2023/06/01 02:53:39;;;;;;;22.58;17.92;;;;;;;9.58;88.94;102232.25;4843865;29;20044;-71
2023/06/01 02:56:05;;;;;;;20.92;16.52;;;;;;;9.56;88.98;102228.72;4870280;29;20143;-72
2023/06/01 02:58:30;;;;;;;24.00;17.13;;;;;;;9.54;88.85;102232.19;4845278;29;20589;-70
2023/06/01 03:00:57;;;;;;;25.58;17.85;;;;;;;9.56;88.74;102240.06;4877375;29;20135;-71
2023/06/01 03:03:26;;;;;;;23.08;16.65;;;;;;;9.57;88.84;102241.84;4859519;29;20123;-72
2023/06/01 03:05:52;;;;;;;20.73;15.70;;;;;;;9.52;89.02;102235.66;4860105;29;20119;-72
2023/06/01 03:08:18;;;;;;;18.70;15.15;;;;;;;9.53;88.55;102237.41;4880906;29;20139;-70
2023/06/01 03:10:44;;;;;;;21.98;15.63;;;;;;;9.55;88.55;102235.69;4872533;29;20037;-70
2023/06/01 03:13:10;;;;;;;20.65;15.70;;;;;;;9.55;88.85;102240.91;4853733;29;20037;-70
2023/06/01 03:15:37;;;;;;;20.25;14.60;;;;;;;9.56;88.50;102236.59;4859167;29;20041;-70
2023/06/01 03:18:03;;;;;;;18.88;14.68;;;;;;;9.63;88.01;102238.44;4862946;29;20041;-71
2023/06/01 03:20:28;;;;;;;22.50;16.65;;;;;;;9.57;87.99;102236.59;4860838;29;20044;-71
2023/06/01 03:22:54;;;;;;;20.98;15.32;;;;;;;9.57;88.73;102240.94;4863897;29;20554;-70
2023/06/01 03:25:19;;;;;;;18.63;14.77;;;;;;;9.64;88.07;102237.56;4872893;29;20021;-70
2023/06/01 03:27:45;;;;;;;19.17;15.40;;;;;;;9.62;88.14;102242.78;4869055;29;20056;-74
2023/06/01 03:30:11;;;;;;;19.85;15.57;;;;;;;9.57;88.45;102235.72;4878219;29;20525;-74
2023/06/01 03:32:40;;;;;;;21.20;15.07;;;;;;;9.59;87.90;102242.72;4858221;29;20131;-74
2023/06/01 03:35:07;;;;;;;18.45;13.70;;;;;;;9.58;87.66;102235.72;4881788;29;20036;-74
2023/06/01 03:37:37;;;;;;;17.88;13.57;;;;;;;9.52;87.98;102238.25;4869639;29;20413;-75
2023/06/01 03:40:10;;;;;;;18.63;13.43;;;;;;;9.54;87.29;102242.66;4860337;29;20117;-71
2023/06/01 03:42:44;;;;;;;17.67;13.27;;;;;;;9.53;87.36;102234.78;4882121;29;20116;-71
2023/06/01 03:45:11;;;;;;;16.40;13.40;;;;;;;9.50;87.77;102234.75;4869772;29;20025;-70
2023/06/01 03:47:37;;;;;;;17.30;13.80;;;;;;;9.49;87.63;102233.00;4858019;29;20056;-70
2023/06/01 03:50:03;;;;;;;19.98;13.15;;;;;;;9.48;88.29;102236.44;4873466;29;20024;-70
2023/06/01 03:52:30;;;;;;;21.15;14.48;;;;;;;9.50;87.72;102245.22;4870656;29;20495;-70
2023/06/01 03:55:04;;;;;;;18.05;14.43;;;;;;;9.52;87.63;102243.50;4865211;29;20043;-70
2023/06/01 03:57:30;;;;;;;15.93;13.75;;;;;;;9.47;87.59;102239.94;4869755;29;20123;-71
2023/06/01 03:59:55;;;;;;;15.25;13.23;;;;;;;9.46;87.00;102241.66;4863878;29;20171;-71
2023/06/01 04:02:22;;;;;;;19.15;13.65;;;;;;;9.43;86.42;102246.84;4852660;29;20040;-72
2023/06/01 04:04:48;;;;;;;16.40;11.93;;;;;;;9.40;86.56;102249.44;4867957;29;20116;-72
2023/06/01 04:07:18;;;;;;;14.80;12.93;;;;;;;9.38;87.32;102250.25;4855029;29;20038;-72
2023/06/01 04:09:46;;;;;;;17.20;12.57;;;;;;;9.37;87.19;102249.38;4871531;29;20033;-72
2023/06/01 04:12:15;;;;;;;16.65;12.73;;;;;;;9.43;86.40;102246.84;4870897;29;20044;-71
2023/06/01 04:14:40;;;;;;;14.90;12.45;;;;;;;9.44;86.67;102250.34;4878077;29;20052;-72
2023/06/01 04:17:07;;;;;;;16.17;13.13;;;;;;;9.43;86.96;102251.22;4869800;29;20045;-72
2023/06/01 04:19:34;;;;;;;17.85;13.13;;;;;;;9.46;86.62;102243.41;4866073;29;20021;-71
2023/06/01 04:22:00;;;;;;;17.65;13.10;;;;;;;9.49;86.44;102233.84;4866278;29;20432;-71
2023/06/01 04:24:26;;;;;;;16.40;12.68;;;;;;;9.50;86.18;102247.84;4871878;29;20181;-72
2023/06/01 04:26:51;;;;;;;20.63;13.30;;;;;;;9.50;86.67;102245.22;4868429;29;20032;-72
2023/06/01 04:29:19;;;;;;;15.80;12.82;;;;;;;9.49;85.98;102248.69;4869030;29;20111;-71
2023/06/01 04:31:45;;;;;;;15.35;12.80;;;;;;;9.47;85.64;102242.56;4869209;29;20033;-71
2023/06/01 04:34:10;;;;;;;17.20;13.13;;;;;;;9.50;85.59;102250.47;4867298;29;20044;-71
2023/06/01 04:36:39;;;;;;;17.85;13.63;;;;;;;9.54;85.85;102252.28;4889168;29;20060;-71
2023/06/01 04:39:06;;;;;;;19.65;13.77;;;;;;;9.56;85.51;102253.16;4857089;29;20060;-71
2023/06/01 04:41:32;;;;;;;18.23;13.32;;;;;;;9.58;85.65;102251.44;4882502;29;20486;-71
2023/06/01 04:43:58;;;;;;;15.95;13.13;;;;;;;9.65;84.90;102261.13;4853413;29;20040;-71
2023/06/01 04:46:29;;;;;;;16.38;13.45;;;;;;;9.66;85.47;102256.78;4873760;29;20389;-75
2023/06/01 04:48:57;;;;;;;16.75;13.95;;;;;;;9.66;85.26;102251.56;4859857;29;20041;-71
2023/06/01 04:51:23;;;;;;;20.05;14.32;;;;;;;9.74;84.99;102262.13;4882361;29;20021;-75
2023/06/01 04:53:51;;;;;;;17.92;14.20;;;;;;;9.74;84.55;102265.66;4884227;29;20063;-75
2023/06/01 04:56:26;;;;;;;21.05;14.45;;;;;;;9.82;85.59;102263.13;4954013;23;20057;-70
2023/06/01 04:58:58;;;;;;;19.60;14.52;;;;;;;9.82;84.57;102258.75;4854884;29;20131;-74
2023/06/01 05:01:29;;;;;;;17.77;14.00;;;;;;;9.91;84.89;102263.25;4856103;29;20048;-73
2023/06/01 05:03:55;;;;;;;17.65;13.60;;;;;;;9.97;84.35;102262.44;4883069;23;20517;-69
2023/06/01 05:06:21;;;;;;;20.60;13.82;;;;;;;10.01;83.93;102261.63;5014391;23;20390;-72
2023/06/01 05:13:51;;;;;;;16.92;13.18;;;;;;;10.05;82.10;102248.59;5001286;23;20088;-71
2023/06/01 05:37:55;;;;;;;17.70;13.07;;;;;;;10.14;81.91;102255.72;3528071;23;20019;-70
2023/06/01 05:42:56;;;;;;;16.75;12.45;;;;;;;10.15;81.22;102249.59;5058126;23;20057;-71
2023/06/01 05:45:21;;;;;;;20.20;13.73;;;;;;;10.25;81.90;102252.34;4908657;23;20065;-73
2023/06/01 05:47:48;;;;;;;18.52;12.55;;;;;;;10.30;81.84;102256.78;4863007;29;20028;-73
2023/06/01 05:50:13;;;;;;;17.67;12.93;;;;;;;10.34;81.55;102248.13;4849629;29;20028;-73
2023/06/01 05:52:42;;;;;;;17.25;12.30;;;;;;;10.34;82.05;102258.63;4841866;29;20492;-73
2023/06/01 05:55:08;;;;;;;16.48;11.35;;;;;;;10.42;80.67;102265.69;4884305;23;20043;-73
2023/06/01 05:57:33;;;;;;;17.05;12.32;;;;;;;10.38;80.63;102260.38;4891409;23;20849;-71
2023/06/01 06:00:13;;;;;;;18.25;11.40;;;;;;;10.44;80.77;102254.34;5264274;23;20027;-74
2023/06/01 06:02:41;;;;;;;18.95;12.05;;;;;;;10.43;80.48;102256.94;4978482;23;20086;-71
2023/06/01 06:05:08;;;;;;;20.90;13.00;;;;;;;10.39;80.26;102246.44;5241615;23;20060;-71
2023/06/01 06:07:33;;;;;;;17.42;11.65;;;;;;;10.54;80.28;102264.09;4955284;23;20055;-74
2023/06/01 06:15:09;;;;;;;19.60;11.98;;;;;;;11.29;80.80;102263.03;4108287;23;20079;-71
2023/06/01 06:27:48;;;;;;;14.85;11.98;;;;;;;12.93;75.63;102246.28;5105822;23;20489;-70
2023/06/01 06:30:14;;;;;;;15.50;11.50;;;;;;;13.58;74.43;102263.88;5009617;23;20057;-72
2023/06/01 06:32:40;;;;;;;18.38;11.50;;;;;;;13.85;71.96;102263.78;5174027;23;20134;-72
2023/06/01 06:35:06;;;;;;;15.60;10.80;;;;;;;14.37;72.19;102252.16;5045285;23;20154;-70
2023/06/01 06:37:32;;;;;;;16.25;10.00;;;;;;;14.32;69.07;102253.06;5014844;23;20496;-73
2023/06/01 06:39:58;;;;;;;15.20;10.80;;;;;;;14.85;71.12;102249.25;4987361;23;20192;-72
2023/06/01 06:42:24;;;;;;;14.65;9.88;;;;;;;15.25;68.18;102251.59;5088083;23;20028;-72
2023/06/01 06:47:26;;;;;;;17.98;10.52;;;;;;;15.52;63.95;102257.50;5534619;23;20120;31
2023/06/01 06:49:52;;;;;;;13.57;10.23;;;;;;;15.31;64.07;102260.34;5018228;23;20085;-74
2023/06/01 06:54:59;;;;;;;14.27;9.68;;;;;;;15.42;65.58;102258.50;5176095;23;20483;-73
2023/06/01 06:57:25;;;;;;;17.23;10.15;;;;;;;15.73;64.00;102260.81;5031875;23;20408;-73
2023/06/01 06:59:51;;;;;;;16.63;9.15;;;;;;;15.89;63.72;102270.38;4832217;29;20032;-71
2023/06/01 07:02:16;;;;;;;13.80;8.93;;;;;;;15.86;63.30;102266.88;4879243;29;20039;-74
2023/06/01 07:04:42;;;;;;;12.27;8.07;;;;;;;16.07;61.96;102274.56;4847055;29;20029;-74
2023/06/01 07:07:07;;;;;;;16.50;9.38;;;;;;;15.85;60.98;102271.31;4845717;29;20041;-75
2023/06/01 07:09:33;;;;;;;14.57;8.95;;;;;;;15.55;60.59;102273.31;4845882;29;20033;-73
2023/06/01 07:11:58;;;;;;;12.90;8.80;;;;;;;15.63;61.00;102272.38;4852546;29;20434;-73
2023/06/01 07:14:24;;;;;;;12.98;8.73;;;;;;;15.62;61.73;102268.00;4862699;29;20044;-74
2023/06/01 07:16:50;;;;;;;15.55;9.70;;;;;;;15.68;60.84;102265.28;4863641;29;20092;-75
2023/06/01 07:19:16;;;;;;;16.33;9.55;;;;;;;15.77;60.49;102267.81;4861803;29;20041;-73
2023/06/01 07:21:41;;;;;;;17.83;9.80;;;;;;;15.79;62.96;102266.09;4859524;29;20119;-73
2023/06/01 07:24:08;;;;;;;15.23;8.90;;;;;;;16.01;59.97;102274.63;4828460;29;20026;-73
2023/06/01 07:26:33;;;;;;;12.43;8.50;;;;;;;15.82;60.87;102265.19;4867284;29;20489;-73
2023/06/01 07:28:59;;;;;;;13.77;9.10;;;;;;;15.74;62.17;102270.50;4855882;29;20127;-73
2023/06/01 07:31:25;;;;;;;16.40;9.15;;;;;;;15.84;61.30;102271.31;4846100;29;20045;-73
2023/06/01 07:33:51;;;;;;;14.68;8.85;;;;;;;15.74;61.29;102265.22;4846547;29;20506;-73
2023/06/01 07:36:20;;;;;;;18.42;9.48;;;;;;;15.77;61.73;102271.34;4849565;29;20045;-73
2023/06/01 07:38:46;;;;;;;13.15;8.88;;;;;;;15.65;60.20;102270.59;4877926;29;20051;-73
2023/06/01 07:41:11;;;;;;;16.48;9.15;;;;;;;15.78;59.92;102266.94;4871678;29;20033;-73
2023/06/01 07:43:38;;;;;;;13.35;9.13;;;;;;;15.82;59.52;102265.19;4847311;29;20036;-74
2023/06/01 07:46:03;;;;;;;13.55;8.93;;;;;;;15.80;60.08;102266.94;4843377;29;20116;-73
2023/06/01 07:48:29;;;;;;;13.52;8.63;;;;;;;15.81;59.35;102271.34;4861799;29;20445;-74
2023/06/01 07:50:54;;;;;;;15.63;8.40;;;;;;;15.77;59.97;102262.53;4858849;29;20435;-74
2023/06/01 07:53:20;;;;;;;13.38;8.77;;;;;;;15.57;59.43;102260.09;4828569;29;20509;-73
2023/06/01 07:55:48;;;;;;;11.40;7.68;;;;;;;15.71;61.44;102255.53;4843436;29;20061;-73
2023/06/01 07:58:14;;;;;;;14.75;7.82;;;;;;;15.82;62.34;102258.13;4845913;29;20120;-73
2023/06/01 08:00:39;;;;;;;13.52;9.10;;;;;;;15.67;59.86;102255.59;4845571;29;20041;-73
2023/06/01 08:03:05;;;;;;;12.65;8.73;;;;;;;15.67;61.42;102260.88;4876933;29;20032;-73
2023/06/01 08:05:31;;;;;;;13.13;9.02;;;;;;;15.78;61.08;102261.66;4845679;29;20033;-74
2023/06/01 08:07:57;;;;;;;14.50;9.02;;;;;;;15.67;59.54;102266.16;4860885;29;20032;-73
2023/06/01 08:10:22;;;;;;;12.68;8.25;;;;;;;15.58;59.19;102260.06;4844921;29;20104;-74
2023/06/01 08:12:49;;;;;;;14.57;9.07;;;;;;;15.69;60.41;102261.75;4845565;29;20025;-73
2023/06/01 08:15:15;;;;;;;17.50;9.40;;;;;;;15.50;59.65;102263.69;4836432;29;20136;-75
2023/06/01 08:17:42;;;;;;;16.58;10.18;;;;;;;15.50;60.46;102259.31;4857842;29;20033;-73
2023/06/01 08:20:10;;;;;;;15.15;8.90;;;;;;;15.47;60.34;102259.31;4876256;29;20033;-74
2023/06/01 08:22:36;;;;;;;15.82;9.65;;;;;;;15.35;59.58;102255.03;4846066;29;20041;-75
2023/06/01 08:25:02;;;;;;;15.93;9.25;;;;;;;15.39;61.26;102256.75;4846106;29;20131;-73
2023/06/01 08:27:28;;;;;;;16.67;9.80;;;;;;;15.50;61.51;102254.03;4842159;29;20172;-74
2023/06/01 08:29:54;;;;;;;12.85;8.90;;;;;;;15.72;61.60;102254.66;4861597;29;20041;-73
2023/06/01 08:32:19;;;;;;;16.92;10.00;;;;;;;15.53;59.42;102253.09;4873919;29;20438;-73
2023/06/01 08:34:46;;;;;;;17.15;10.10;;;;;;;15.51;60.08;102253.09;4845718;29;20350;-73
2023/06/01 08:37:13;;;;;;;13.45;9.25;;;;;;;15.62;60.82;102252.16;4855125;29;20036;-73
2023/06/01 08:39:39;;;;;;;17.52;10.35;;;;;;;15.58;59.41;102249.50;4843583;29;20060;-73
2023/06/01 08:42:15;;;;;;;15.50;9.75;;;;;;;15.64;60.01;102245.06;4855475;29;20025;-74
2023/06/01 08:44:41;;;;;;;16.73;9.60;;;;;;;15.70;59.95;102251.19;4876103;29;20033;-75
2023/06/01 08:47:08;;;;;;;15.93;9.77;;;;;;;15.68;58.69;102246.78;4860901;29;20029;-73
2023/06/01 08:49:35;;;;;;;16.27;9.63;;;;;;;15.84;60.61;102240.47;4845808;29;20029;-72
2023/06/01 08:52:11;;;;;;;15.73;9.63;;;;;;;15.91;60.37;102243.91;4860824;29;20116;-72
2023/06/01 08:54:38;;;;;;;15.70;10.07;;;;;;;15.80;60.37;102243.16;4847275;29;20047;-72
2023/06/01 08:57:06;;;;;;;15.95;10.20;;;;;;;15.68;59.04;102241.50;4863907;29;20056;-72
2023/06/01 08:59:33;;;;;;;16.73;9.98;;;;;;;15.80;60.48;102235.25;4864870;29;20037;-72
2023/06/01 09:01:59;;;;;;;14.00;10.43;;;;;;;15.89;58.49;102232.50;4849311;29;20041;-71
2023/06/01 09:04:25;;;;;;;17.65;10.15;;;;;;;16.02;61.57;102230.56;4877807;29;20048;-71
2023/06/01 09:06:51;;;;;;;13.52;9.43;;;;;;;16.03;60.06;102232.31;4849338;29;20370;-72
2023/06/01 09:09:17;;;;;;;16.40;10.40;;;;;;;16.02;60.26;102230.56;4849481;29;20132;-71
2023/06/01 09:11:44;;;;;;;14.63;9.73;;;;;;;16.06;58.22;102221.69;4862718;29;20133;-71
2023/06/01 09:14:23;;;;;;;13.73;9.45;;;;;;;16.05;58.84;102236.69;4848722;29;20037;-71
2023/06/01 09:16:51;;;;;;;15.90;10.17;;;;;;;15.98;58.11;102224.44;4842358;29;20145;-71
2023/06/01 09:19:20;;;;;;;14.65;9.65;;;;;;;15.99;59.92;102223.56;4878044;29;20041;-71
2023/06/01 09:21:57;;;;;;;15.32;9.20;;;;;;;16.12;58.32;102216.34;4860689;29;20128;-72
2023/06/01 09:24:23;;;;;;;15.15;9.65;;;;;;;16.22;59.38;102225.00;4854943;29;20049;-72
2023/06/01 09:26:49;;;;;;;13.10;8.98;;;;;;;16.20;59.29;102214.47;4849118;29;20528;-72
2023/06/01 09:29:16;;;;;;;17.05;10.20;;;;;;;16.20;59.20;102211.81;4861052;29;20072;-72
2023/06/01 09:31:44;;;;;;;15.40;9.80;;;;;;;16.29;59.47;102208.16;4848941;29;20033;-71
2023/06/01 09:34:15;;;;;;;18.35;11.23;;;;;;;16.32;58.47;102199.31;4862808;29;20033;-71
2023/06/01 09:36:41;;;;;;;15.07;9.68;;;;;;;16.38;58.09;102201.91;4864369;29;20032;-72
2023/06/01 09:39:09;;;;;;;14.07;9.45;;;;;;;16.47;57.91;102199.09;4847585;29;20037;-71
2023/06/01 09:42:01;;;;;;;14.02;9.63;;;;;;;16.69;57.87;102193.47;4861136;29;20025;-72
2023/06/01 09:44:28;;;;;;;17.00;10.50;;;;;;;16.68;58.23;102199.66;4876212;29;20032;-71
2023/06/01 09:46:59;;;;;;;17.58;9.77;;;;;;;16.68;58.25;102183.78;4875464;29;20026;-71
2023/06/01 09:49:25;;;;;;;;;;;;;;;16.87;57.76;102190.53;4878207;29;20481;-71
2023/06/01 09:52:14;;;;;;;17.85;10.73;;;;;;;16.81;58.88;102190.66;4879091;29;19923;-71
2023/06/01 09:54:43;;;;;;;17.02;10.68;;;;;;;16.86;59.81;102191.44;4879327;29;20123;-72
2023/06/01 09:57:09;;;;;;;14.20;9.57;;;;;;;16.86;57.44;102182.63;4863932;29;20036;-71
2023/06/01 09:59:42;;;;;;;16.02;10.15;;;;;;;16.79;58.02;102181.84;4862454;29;20545;-70
2023/06/01 10:02:16;;;;;;;18.77;10.45;;;;;;;16.78;57.69;102191.56;4857891;29;20037;-71
2023/06/01 10:04:47;;;;;;;14.05;10.02;;;;;;;16.84;56.34;102190.59;4871290;29;20103;-72
2023/06/01 10:07:13;;;;;;;16.25;9.57;;;;;;;16.74;56.35;102196.94;4863395;29;20036;-71
2023/06/01 10:09:42;;;;;;;17.33;9.70;;;;;;;16.71;56.84;102189.06;4862940;29;20076;-72
2023/06/01 10:12:11;;;;;;;15.68;9.95;;;;;;;16.78;58.58;102185.41;4847450;29;20041;-72
2023/06/01 10:14:39;;;;;;;15.32;9.23;;;;;;;16.93;58.93;102186.94;4863587;29;20426;-72
2023/06/01 10:17:05;;;;;;;15.10;10.07;;;;;;;16.84;56.87;102177.38;4847669;29;20141;-73
2023/06/01 10:19:31;;;;;;;14.23;9.15;;;;;;;16.94;56.82;102180.78;4851550;29;20037;-72
2023/06/01 10:21:57;;;;;;;17.48;10.05;;;;;;;16.83;56.23;102177.38;4851119;29;20512;-72
2023/06/01 10:24:23;;;;;;;15.40;9.02;;;;;;;16.88;54.99;102176.44;4863030;29;20561;-73
2023/06/01 10:27:20;;;;;;;15.70;9.80;;;;;;;16.95;55.46;102177.19;4847378;29;20124;-73
2023/06/01 10:29:46;;;;;;;17.30;9.65;;;;;;;16.99;56.13;102172.75;4878364;29;20116;-74
2023/06/01 10:32:37;;;;;;;17.38;9.65;;;;;;;17.18;58.32;102168.84;4862997;29;20056;-74
2023/06/01 10:35:06;;;;;;;18.35;9.38;;;;;;;17.25;57.67;102178.41;4870396;29;20117;-74
2023/06/01 10:37:32;;;;;;;17.08;9.38;;;;;;;17.25;56.09;102173.13;4845293;29;20398;-74
2023/06/01 10:40:20;;;;;;;18.83;10.27;;;;;;;17.35;56.85;102186.22;4847753;29;20127;-74
2023/06/01 10:42:48;;;;;;;16.77;10.27;;;;;;;17.26;55.05;102177.53;4877351;29;20119;-73
2023/06/01 10:45:33;;;;;;;16.33;10.07;;;;;;;17.46;56.26;102169.19;4851940;29;20042;-74
2023/06/01 10:47:59;;;;;;;14.60;9.60;;;;;;;17.46;55.75;102168.34;4859433;29;20049;-74
2023/06/01 10:50:25;;;;;;;13.25;9.57;;;;;;;17.51;54.08;102158.50;4856190;29;20360;-74
2023/06/01 10:52:51;;;;;;;17.70;9.82;;;;;;;17.72;57.46;102161.66;4861310;29;20194;-75
2023/06/01 10:55:17;;;;;;;13.23;9.60;;;;;;;17.70;53.75;102166.09;4861650;29;20025;-74
2023/06/01 10:57:46;;;;;;;14.02;10.55;;;;;;;17.80;55.69;102162.34;4878537;29;20588;-74
2023/06/01 11:00:20;;;;;;;17.90;10.77;;;;;;;17.81;55.79;102156.13;4863173;29;20043;-73
2023/06/01 11:02:59;;;;;;;15.75;10.80;;;;;;;17.82;55.94;102165.84;4862022;29;20100;-74
2023/06/01 11:05:35;;;;;;;14.40;10.13;;;;;;;17.94;55.87;102165.63;4863075;29;20120;-74
2023/06/01 11:08:01;;;;;;;21.70;10.95;;;;;;;17.90;55.24;102155.06;4870721;29;20090;-74
2023/06/01 11:10:53;;;;;;;16.13;10.95;;;;;;;18.02;55.41;102153.97;4862167;29;20482;-73
2023/06/01 11:13:27;;;;;;;16.58;10.35;;;;;;;18.12;55.31;102148.41;4872076;29;20045;-74
2023/06/01 11:16:09;;;;;;;19.23;10.85;;;;;;;18.08;53.57;102145.88;4869012;29;20195;-75
2023/06/01 11:18:44;;;;;;;15.80;10.48;;;;;;;18.07;53.76;102149.44;4861960;29;20059;-74
2023/06/01 11:21:24;;;;;;;22.73;11.60;;;;;;;18.13;54.05;102142.22;4876047;29;20060;-73
2023/06/01 11:23:51;;;;;;;14.50;9.93;;;;;;;18.26;54.56;102144.56;4860704;29;20033;-73
2023/06/01 11:26:19;;;;;;;17.35;10.02;;;;;;;18.33;54.40;102147.06;4861460;29;20497;-76
2023/06/01 11:28:48;;;;;;;15.10;10.57;;;;;;;18.33;53.24;102143.53;4856284;29;20033;-74
2023/06/01 11:31:16;;;;;;;15.13;9.47;;;;;;;18.45;53.54;102139.72;4853792;29;20398;-75
2023/06/01 11:33:53;;;;;;;14.68;10.00;;;;;;;18.51;52.46;102136.91;4861775;29;20148;-74
2023/06/01 11:36:26;;;;;;;13.73;9.45;;;;;;;18.63;53.97;102143.69;4876159;29;20466;-75
2023/06/01 11:38:53;;;;;;;16.05;9.80;;;;;;;18.57;51.76;102136.75;4846992;29;20041;-74
2023/06/01 11:41:25;;;;;;;13.98;9.05;;;;;;;18.62;51.27;102137.53;4843100;29;20041;-74
2023/06/01 11:43:57;;;;;;;13.77;9.20;;;;;;;18.82;52.65;102130.81;4876810;29;20447;-73
2023/06/01 11:46:24;;;;;;;11.18;8.73;;;;;;;18.97;51.99;102134.91;4846859;29;20067;-73
2023/06/01 11:49:01;;;;;;;13.52;8.07;;;;;;;19.16;51.70;102138.78;4858409;29;20037;-73
2023/06/01 11:51:29;;;;;;;13.60;8.45;;;;;;;19.24;51.62;102135.06;4866913;29;20029;-74
2023/06/01 11:53:55;;;;;;;14.32;8.57;;;;;;;19.10;50.22;102131.00;4857424;29;20043;-73
2023/06/01 11:56:29;;;;;;;13.65;8.98;;;;;;;19.17;51.03;102132.56;4860101;29;20036;-73
2023/06/01 11:58:57;;;;;;;14.07;8.95;;;;;;;19.25;50.99;102127.06;4846438;29;20061;-74
2023/06/01 12:01:24;;;;;;;14.18;8.55;;;;;;;19.31;49.48;102124.22;4846337;29;20044;-74
2023/06/01 12:03:50;;;;;;;10.48;6.80;;;;;;;19.52;50.94;102120.09;4846580;29;20040;-74
2023/06/01 12:06:23;;;;;;;10.77;8.02;;;;;;;19.59;49.86;102112.78;4860632;29;20037;-75
2023/06/01 12:08:55;;;;;;;10.60;8.00;;;;;;;19.67;50.13;102123.22;4855228;29;20089;-74